Time;durP1;ratioP1;P1;durP2;ratioP2;P2;SDS_P1;SDS_P2;PMS_P1;PMS_P2;Temp;Humidity;BMP_temperature;BMP_pressure;BME280_temperature;BME280_humidity;BME280_pressure;Samples;Min_cycle;Max_cycle;Signal;HPM_P1;HPM_P2
2023/10/17 00:01:59;;;;;;;0.10;0.10;;;;;;;11.12;53.77;101125.13;7361893;19;20023;-59
2023/10/17 00:04:32;;;;;;;0.10;0.10;;;;;;;11.20;53.89;101119.75;7358803;19;20018;-59
2023/10/17 00:07:02;;;;;;;0.00;0.00;;;;;;;11.22;53.66;101123.22;7356454;19;20469;-59
2023/10/17 00:09:29;;;;;;;0.00;0.00;;;;;;;11.25;53.82;101115.28;7353658;19;20049;-59
2023/10/17 00:12:09;;;;;;;0.00;0.00;;;;;;;11.29;54.27;101117.81;7362421;19;20969;-59
2023/10/17 00:14:35;;;;;;;0.00;0.00;;;;;;;11.29;54.38;101116.97;7354199;19;20006;-58
2023/10/17 00:17:03;;;;;;;0.10;0.10;;;;;;;11.32;54.45;101115.16;7366046;19;19999;-59
2023/10/17 00:19:32;;;;;;;0.10;0.10;;;;;;;11.34;54.42;101109.91;7361357;19;20014;-59
2023/10/17 00:22:03;;;;;;;0.05;0.05;;;;;;;11.37;54.27;101115.06;7353016;19;20130;-59
2023/10/17 00:24:29;;;;;;;0.00;0.00;;;;;;;11.37;54.54;101109.84;7354990;19;20018;-58
2023/10/17 00:26:54;;;;;;;0.05;0.05;;;;;;;11.37;54.02;101107.22;7363900;19;20035;-59
2023/10/17 00:29:20;;;;;;;0.00;0.00;;;;;;;11.37;54.25;101109.84;7359340;19;20029;-58
2023/10/17 00:31:46;;;;;;;0.05;0.05;;;;;;;11.40;54.65;101104.53;7359830;19;20145;-58
2023/10/17 00:34:23;;;;;;;0.10;0.10;;;;;;;11.40;54.93;101105.44;7356842;19;19995;-58
2023/10/17 00:36:49;;;;;;;;;;;;;;;11.44;51.74;101099.22;7361681;19;20090;-59
2023/10/17 00:39:17;;;;;;;0.00;0.00;;;;;;;11.40;54.64;101088.84;7362608;19;20030;-59
2023/10/17 00:44:36;;;;;;;0.10;0.10;;;;;;;11.39;54.72;101081.91;7353577;19;20023;-59
2023/10/17 00:47:04;;;;;;;0.00;0.00;;;;;;;11.41;54.70;101091.47;7359537;19;20003;-59
2023/10/17 00:49:33;;;;;;;;;;;;;;;11.44;52.23;101088.75;7362752;19;20789;-59
2023/10/17 00:52:03;;;;;;;0.00;0.00;;;;;;;11.43;54.49;101088.81;7362298;19;19994;-59
2023/10/17 00:54:31;;;;;;;0.00;0.00;;;;;;;11.37;54.97;101073.25;7361769;19;20372;-59
2023/10/17 00:57:00;;;;;;;0.10;0.10;;;;;;;11.28;55.07;101060.34;7331597;19;20005;-59
2023/10/17 00:59:29;;;;;;;0.00;0.00;;;;;;;11.42;55.34;101081.84;7358188;19;20011;-59
2023/10/17 01:01:56;;;;;;;0.10;0.10;;;;;;;11.42;55.30;101074.00;7370520;19;20018;-59
2023/10/17 01:04:23;;;;;;;0.10;0.10;;;;;;;11.42;55.53;101081.84;7365308;19;20391;-59
2023/10/17 01:06:55;;;;;;;;;;;;;;;11.41;52.46;101069.69;7368508;19;20006;-59
2023/10/17 01:09:25;;;;;;;0.00;0.00;;;;;;;11.43;55.79;101065.25;7365251;19;20684;-59
2023/10/17 01:11:54;;;;;;;0.00;0.00;;;;;;;11.44;55.53;101072.22;7367835;19;20479;-59
2023/10/17 01:14:20;;;;;;;0.10;0.10;;;;;;;11.34;55.69;101057.59;7366138;19;20015;-59
2023/10/17 01:16:46;;;;;;;0.00;0.00;;;;;;;11.43;56.13;101067.88;7369261;19;20090;-59
2023/10/17 01:19:15;;;;;;;0.08;0.08;;;;;;;11.45;55.75;101058.25;7369826;19;20372;-58
2023/10/17 01:21:41;;;;;;;0.10;0.10;;;;;;;11.49;56.39;101061.66;7366241;19;20443;-59
2023/10/17 01:24:07;;;;;;;0.10;0.10;;;;;;;11.50;56.20;101061.63;7369202;19;20014;-59
2023/10/17 01:26:37;;;;;;;0.10;0.10;;;;;;;11.52;56.40;101062.47;7368535;19;20016;-59
2023/10/17 01:29:04;;;;;;;0.00;0.00;;;;;;;11.54;56.78;101055.44;7365716;19;20018;-59
2023/10/17 01:31:39;;;;;;;0.00;0.00;;;;;;;11.56;56.67;101058.91;7362105;19;20031;-59
2023/10/17 01:34:08;;;;;;;0.00;0.00;;;;;;;11.57;56.93;101055.38;7369041;19;20006;-59
2023/10/17 01:36:36;;;;;;;0.10;0.10;;;;;;;11.60;56.58;101050.06;7370524;19;20027;-59
2023/10/17 01:39:11;;;;;;;0.00;0.00;;;;;;;11.61;56.87;101043.97;7365908;19;20509;-59
2023/10/17 01:41:47;;;;;;;0.00;0.00;;;;;;;11.63;56.63;101039.56;7375788;19;20018;-59
2023/10/17 01:44:12;;;;;;;0.10;0.10;;;;;;;11.54;56.29;101024.06;7361781;19;20018;-58
2023/10/17 01:46:38;;;;;;;0.00;0.00;;;;;;;11.54;56.53;101018.81;7367385;19;20037;-59
2023/10/17 01:49:10;;;;;;;0.10;0.10;;;;;;;11.64;56.49;101041.28;7365109;19;20074;-59
2023/10/17 01:51:36;;;;;;;0.10;0.10;;;;;;;11.66;56.48;101044.72;7367103;19;20002;-59
2023/10/17 01:54:11;;;;;;;0.10;0.10;;;;;;;11.66;56.60;101043.88;7364569;19;20014;-59
2023/10/17 01:56:40;;;;;;;0.10;0.10;;;;;;;11.66;56.86;101036.03;7367075;19;20118;-59
2023/10/17 01:59:48;;;;;;;0.00;0.00;;;;;;;11.66;56.82;101042.13;7364496;19;20018;-59
2023/10/17 02:01:59;;;;;;;0.00;0.00;;;;;;;11.64;56.49;101030.81;7366658;19;20014;-59
2023/10/17 02:04:25;;;;;;;0.00;0.00;;;;;;;11.68;56.46;101042.06;7368520;19;20019;-59
2023/10/17 02:06:50;;;;;;;0.00;0.00;;;;;;;11.68;56.76;101037.69;7357372;19;20627;-60
2023/10/17 02:09:24;;;;;;;0.10;0.10;;;;;;;11.67;56.74;101025.53;7364942;19;20022;-60
2023/10/17 02:11:52;;;;;;;0.10;0.10;;;;;;;11.69;56.96;101015.00;7360775;19;20003;-59
2023/10/17 02:14:18;;;;;;;0.10;0.10;;;;;;;11.68;56.85;101015.91;7359473;19;20098;-59
2023/10/17 02:16:43;;;;;;;0.00;0.00;;;;;;;11.68;57.15;101011.53;7367229;19;20006;-59
2023/10/17 02:19:10;;;;;;;0.00;0.00;;;;;;;11.66;56.58;100997.66;7367554;19;20018;-59
2023/10/17 02:21:39;;;;;;;0.08;0.08;;;;;;;11.70;56.64;101004.50;7365149;19;20022;-60
2023/10/17 02:24:06;;;;;;;0.00;0.00;;;;;;;11.65;56.91;100995.03;7362882;19;20019;-59
2023/10/17 02:26:31;;;;;;;0.10;0.10;;;;;;;11.72;56.73;101006.25;7363458;19;20027;-59
2023/10/17 02:29:04;;;;;;;0.00;0.00;;;;;;;11.74;56.76;101001.84;7364850;19;20493;-59
2023/10/17 02:31:29;;;;;;;0.00;0.00;;;;;;;11.53;57.23;100974.41;7361864;19;20415;-59
2023/10/17 02:33:56;;;;;;;0.00;0.00;;;;;;;11.74;56.92;101005.31;7364348;19;20048;-59
2023/10/17 02:36:21;;;;;;;0.10;0.10;;;;;;;11.72;56.75;100990.56;7370595;19;20017;-58
2023/10/17 02:38:47;;;;;;;0.00;0.00;;;;;;;11.78;57.25;100998.25;7364439;19;20007;-59
2023/10/17 02:41:18;;;;;;;0.00;0.00;;;;;;;11.80;56.99;100999.06;7366930;19;20067;-58
2023/10/17 02:43:53;;;;;;;0.00;0.00;;;;;;;11.82;56.77;101003.41;7362679;19;20102;-59
2023/10/17 02:46:19;;;;;;;0.08;0.08;;;;;;;11.67;56.75;100967.09;7364859;19;20030;-59
2023/10/17 02:48:48;;;;;;;0.00;0.00;;;;;;;11.84;57.01;100996.38;7359960;19;20014;-59
2023/10/17 02:53:53;;;;;;;0.05;0.05;;;;;;;11.90;57.04;100984.91;7364979;19;20015;-59
2023/10/17 02:56:19;;;;;;;0.00;0.00;;;;;;;11.88;57.28;100976.25;7357107;19;20007;-59
2023/10/17 02:58:50;;;;;;;0.00;0.00;;;;;;;11.89;57.12;100973.59;7364038;19;20010;-60
2023/10/17 03:01:16;;;;;;;0.00;0.00;;;;;;;11.83;57.19;100958.03;7369366;19;20026;-59
2023/10/17 03:03:42;;;;;;;0.10;0.10;;;;;;;11.82;57.41;100950.22;7361507;19;20414;-59
2023/10/17 03:06:08;;;;;;;0.00;0.00;;;;;;;11.97;57.46;100965.56;7359025;19;20046;-58
2023/10/17 03:08:36;;;;;;;0.10;0.10;;;;;;;11.98;57.07;100962.03;7365482;19;20006;-59
2023/10/17 03:11:02;;;;;;;0.10;0.10;;;;;;;11.99;57.10;100963.75;7363600;19;20031;-59
2023/10/17 03:13:40;;;;;;;0.10;0.10;;;;;;;12.01;57.46;100955.84;7361137;19;20014;-60
2023/10/17 03:16:17;;;;;;;;;;;;;;;12.07;54.55;100955.72;7364434;19;20014;-59
2023/10/17 03:18:45;;;;;;;0.10;0.10;;;;;;;12.04;57.04;100951.41;7333257;19;19923;-59
2023/10/17 03:21:11;;;;;;;0.10;0.10;;;;;;;12.05;57.00;100947.03;7363108;19;20027;-59
2023/10/17 03:23:37;;;;;;;0.10;0.10;;;;;;;12.05;57.36;100954.88;7362301;19;20102;-60
2023/10/17 03:26:03;;;;;;;0.10;0.10;;;;;;;12.04;57.38;100954.03;7369114;19;20070;-59
2023/10/17 03:28:33;;;;;;;0.10;0.10;;;;;;;12.05;57.48;100957.50;7363780;19;20010;-60
2023/10/17 03:30:58;;;;;;;0.10;0.10;;;;;;;12.02;57.30;100947.13;7359099;19;20825;-59
2023/10/17 03:33:27;;;;;;;0.10;0.10;;;;;;;12.05;57.51;100947.91;7364624;19;20011;-59
2023/10/17 03:38:30;;;;;;;0.10;0.10;;;;;;;12.01;57.58;100930.53;7363104;19;20045;-59
2023/10/17 03:41:02;;;;;;;0.10;0.10;;;;;;;12.06;57.52;100928.66;7365009;19;20497;-59
2023/10/17 03:43:29;;;;;;;0.00;0.00;;;;;;;12.05;57.68;100924.34;7364264;19;20023;-58
2023/10/17 03:45:58;;;;;;;0.10;0.10;;;;;;;12.02;57.15;100916.59;7359342;19;20015;-59
2023/10/17 03:48:28;;;;;;;0.00;0.00;;;;;;;12.04;57.44;100927.84;7361076;19;20038;-59
2023/10/17 03:50:59;;;;;;;0.05;0.05;;;;;;;12.04;57.35;100925.25;7353714;19;20024;-59
2023/10/17 03:55:50;;;;;;;0.08;0.08;;;;;;;12.03;57.46;100920.91;7364807;19;20491;-59
2023/10/17 04:00:48;;;;;;;0.03;0.03;;;;;;;12.03;57.27;100912.19;7362887;19;20015;-58
2023/10/17 04:03:22;;;;;;;0.10;0.10;;;;;;;12.02;57.69;100908.72;7360537;19;20739;-59
2023/10/17 04:05:49;;;;;;;0.10;0.10;;;;;;;12.01;57.70;100914.84;7363987;19;20015;-59
2023/10/17 04:08:19;;;;;;;0.00;0.00;;;;;;;12.02;57.46;100913.97;7357078;19;20010;-59
2023/10/17 04:13:37;;;;;;;0.10;0.10;;;;;;;12.02;57.66;100918.34;7360989;19;20051;-58
2023/10/17 04:16:10;;;;;;;0.05;0.05;;;;;;;12.01;58.04;100917.44;7367668;19;20041;-59
2023/10/17 04:18:39;;;;;;;0.10;0.10;;;;;;;11.99;57.82;100911.41;7353337;19;20378;-59
2023/10/17 04:21:27;;;;;;;0.05;0.05;;;;;;;12.01;57.87;100904.38;7361660;19;20427;-59
2023/10/17 04:23:55;;;;;;;0.00;0.00;;;;;;;12.01;57.66;100903.50;7362651;19;20029;-59
2023/10/17 04:26:34;;;;;;;0.03;0.03;;;;;;;12.01;57.62;100898.28;7361555;19;20721;-59
2023/10/17 04:29:11;;;;;;;0.10;0.10;;;;;;;11.99;57.71;100898.31;7360561;19;20359;-59
2023/10/17 04:31:43;;;;;;;0.10;0.10;;;;;;;12.00;58.27;100902.66;7361519;19;20645;-59
2023/10/17 04:34:14;;;;;;;0.00;0.00;;;;;;;11.99;58.16;100893.09;7362803;19;20006;-59
2023/10/17 04:36:40;;;;;;;0.10;0.10;;;;;;;11.87;58.14;100869.84;7364707;19;20014;-59
2023/10/17 04:39:57;;;;;;;0.10;0.10;;;;;;;12.01;57.87;100899.13;7372862;19;20038;-59
2023/10/17 04:44:21;;;;;;;0.10;0.10;;;;;;;11.94;57.98;100889.72;7367994;19;20006;-59
2023/10/17 04:46:50;;;;;;;0.03;0.03;;;;;;;12.01;58.19;100899.13;7369498;19;20053;-58
2023/10/17 04:49:21;;;;;;;0.00;0.00;;;;;;;12.01;58.19;100896.50;7370652;19;21119;-58
2023/10/17 04:52:05;;;;;;;0.10;0.10;;;;;;;12.01;58.02;100893.03;7363239;19;20027;-59
2023/10/17 04:54:39;;;;;;;0.10;0.10;;;;;;;12.02;58.24;100900.88;7362078;19;20738;-59
2023/10/17 04:57:08;;;;;;;0.10;0.10;;;;;;;12.02;58.12;100893.03;7363611;19;20018;-59
2023/10/17 06:18:52;;;;;;;0.10;0.10;;;;;;;11.81;59.20;100869.97;7367129;19;20016;-59
2023/10/17 06:21:18;;;;;;;0.10;0.10;;;;;;;11.81;59.29;100876.06;7358580;19;20011;-59
2023/10/17 06:34:20;;;;;;;0.00;0.00;;;;;;;11.79;59.45;100872.63;7359861;19;20007;-59
2023/10/17 06:36:50;;;;;;;0.10;0.10;;;;;;;11.65;59.29;100854.63;7365905;19;20010;-59
2023/10/17 06:39:19;;;;;;;0.10;0.10;;;;;;;11.76;59.25;100871.81;7365211;19;20483;-59
2023/10/17 06:41:47;;;;;;;0.10;0.10;;;;;;;11.75;59.28;100875.34;7355162;19;20011;-59
2023/10/17 06:44:22;;;;;;;0.00;0.00;;;;;;;11.74;59.76;100879.72;7334844;19;20367;-59
2023/10/17 06:46:58;;;;;;;0.10;0.10;;;;;;;11.75;59.19;100881.44;7361328;19;20018;-59
2023/10/17 06:49:55;;;;;;;0.00;0.00;;;;;;;11.73;59.53;100885.00;7357874;19;20003;-59
2023/10/17 06:55:07;;;;;;;0.10;0.10;;;;;;;11.73;59.92;100877.16;7362328;19;20009;-59
2023/10/17 06:57:33;;;;;;;0.00;0.00;;;;;;;11.72;59.79;100872.81;7358785;19;20006;-59
2023/10/17 07:02:48;;;;;;;0.10;0.10;;;;;;;11.72;59.99;100867.59;7363258;19;20479;-58
2023/10/17 07:05:14;;;;;;;0.00;0.00;;;;;;;11.72;60.03;100871.06;7361590;19;20007;-59
2023/10/17 07:07:41;;;;;;;0.00;0.00;;;;;;;11.63;60.02;100851.22;7359429;19;20010;-59
2023/10/17 07:10:37;;;;;;;0.00;0.00;;;;;;;11.72;59.84;100864.97;7370757;19;20689;-59
2023/10/17 07:13:32;;;;;;;0.10;0.10;;;;;;;11.76;58.81;100877.06;7361379;19;20031;-60
2023/10/17 07:16:04;;;;;;;0.10;0.10;;;;;;;11.74;60.08;100878.88;7364537;19;20007;-59
2023/10/17 07:23:44;;;;;;;0.00;0.00;;;;;;;11.72;60.16;100873.69;7360455;19;20014;-59
2023/10/17 07:26:17;;;;;;;0.10;0.10;;;;;;;11.74;60.26;100871.88;7362030;19;20888;-60
2023/10/17 07:28:49;;;;;;;0.10;0.10;;;;;;;11.78;60.12;100872.66;7361844;19;20770;-58
2023/10/17 07:31:16;;;;;;;0.10;0.10;;;;;;;11.66;60.62;100851.16;7358086;19;20010;-59
2023/10/17 07:33:43;;;;;;;0.00;0.00;;;;;;;11.82;60.29;100876.97;7362572;19;20022;-59
2023/10/17 07:36:22;;;;;;;0.00;0.00;;;;;;;11.83;60.60;100873.44;7357387;19;20467;-59
2023/10/17 07:38:47;;;;;;;0.10;0.10;;;;;;;11.83;60.57;100873.44;7357150;19;20483;-59
2023/10/17 07:41:13;;;;;;;0.03;0.03;;;;;;;11.86;60.63;100875.97;7361601;19;20003;-59
2023/10/17 07:43:45;;;;;;;0.10;0.10;;;;;;;11.89;60.99;100868.91;7356670;19;20018;-59
2023/10/17 07:46:19;;;;;;;0.00;0.00;;;;;;;11.93;60.66;100874.94;7361333;19;20007;-60
2023/10/17 07:48:48;;;;;;;0.00;0.00;;;;;;;11.96;60.83;100866.97;7364833;19;20034;-59
2023/10/17 07:51:15;;;;;;;0.00;0.00;;;;;;;11.99;60.88;100863.44;7358515;19;20014;-59
2023/10/17 07:53:49;;;;;;;0.00;0.00;;;;;;;12.02;60.62;100856.38;7339024;19;20760;-59
2023/10/17 07:56:24;;;;;;;0.00;0.00;;;;;;;12.06;60.69;100862.38;7354599;19;20014;-59
2023/10/17 07:58:57;;;;;;;0.03;0.03;;;;;;;12.09;60.91;100852.69;7364160;19;20062;-59
2023/10/17 08:01:31;;;;;;;0.10;0.10;;;;;;;12.09;61.04;100844.84;7362493;19;20110;-59
2023/10/17 08:04:12;;;;;;;0.10;0.10;;;;;;;12.17;60.46;100852.50;7363952;19;20017;-59
2023/10/17 08:06:38;;;;;;;0.10;0.10;;;;;;;12.20;61.01;100850.63;7361159;19;20010;-60
2023/10/17 08:09:16;;;;;;;0.10;0.10;;;;;;;12.24;60.92;100853.19;7366545;19;20020;-59
2023/10/17 08:11:42;;;;;;;0.10;0.10;;;;;;;12.24;61.23;100840.09;7361486;19;20442;-59
2023/10/17 08:14:11;;;;;;;0.10;0.10;;;;;;;12.32;60.96;100846.00;7361785;19;20019;-59
2023/10/17 08:16:40;;;;;;;0.00;0.00;;;;;;;12.36;61.03;100842.38;7362132;19;19998;-59
2023/10/17 08:19:29;;;;;;;0.10;0.10;;;;;;;12.40;61.22;100844.00;7362935;19;20386;-59
2023/10/17 08:24:34;;;;;;;0.03;0.03;;;;;;;12.47;61.31;100835.09;7359629;19;20073;-59
2023/10/17 08:27:46;;;;;;;0.00;0.00;;;;;;;12.53;61.33;100836.66;7366145;19;20002;-57
2023/10/17 08:29:49;;;;;;;0.10;0.10;;;;;;;12.59;60.79;100833.88;7357907;19;20078;-58
2023/10/17 08:35:00;;;;;;;0.00;0.00;;;;;;;12.57;60.95;100812.09;7362471;19;20014;-59
2023/10/17 08:37:28;;;;;;;0.10;0.10;;;;;;;12.63;61.20;100807.53;7359467;19;20635;-59
2023/10/17 08:39:54;;;;;;;0.10;0.10;;;;;;;12.77;61.05;100825.44;7358979;19;20015;-58
2023/10/17 08:42:37;;;;;;;0.10;0.10;;;;;;;12.81;61.10;100828.84;7360491;19;20346;-59
2023/10/17 08:45:05;;;;;;;0.03;0.03;;;;;;;12.87;61.35;100826.03;7366313;19;20010;-59
2023/10/17 08:47:31;;;;;;;0.10;0.10;;;;;;;12.92;60.88;100822.38;7364532;19;20015;-59
2023/10/17 08:50:03;;;;;;;0.00;0.00;;;;;;;12.97;60.79;100825.72;7359267;19;20389;-58
2023/10/17 08:52:31;;;;;;;0.00;0.00;;;;;;;13.00;60.93;100824.78;7360921;19;20018;-59
2023/10/17 08:54:56;;;;;;;0.00;0.00;;;;;;;12.99;61.44;100818.69;7358686;19;20018;-59
2023/10/17 08:57:23;;;;;;;0.00;0.00;;;;;;;13.11;60.82;100822.66;7360028;19;20007;-59
2023/10/17 09:04:50;;;;;;;0.00;0.00;;;;;;;13.28;60.81;100819.56;7360758;19;20019;-59
2023/10/17 09:07:31;;;;;;;0.00;0.00;;;;;;;13.35;60.88;100815.81;7362635;19;20028;-59
2023/10/17 09:10:03;;;;;;;0.10;0.10;;;;;;;13.40;60.59;100807.81;7358087;19;20013;-59
2023/10/17 09:12:29;;;;;;;0.10;0.10;;;;;;;13.47;60.64;100799.69;7362622;19;20026;-59
2023/10/17 09:14:56;;;;;;;0.00;0.00;;;;;;;13.54;60.92;100805.59;7367699;19;20050;-59
2023/10/17 09:19:52;;;;;;;0.00;0.00;;;;;;;13.69;60.70;100798.97;7361762;19;19923;-59
2023/10/17 09:22:26;;;;;;;0.08;0.08;;;;;;;13.79;60.00;100794.25;7365497;19;20023;-60
2023/10/17 09:24:51;;;;;;;0.10;0.10;;;;;;;13.70;60.51;100780.56;7360051;19;20050;-59
2023/10/17 09:27:18;;;;;;;0.00;0.00;;;;;;;13.89;60.61;100800.91;7366610;19;20018;-59
2023/10/17 09:29:52;;;;;;;0.00;0.00;;;;;;;13.95;59.73;100792.84;7365731;19;20862;-59
2023/10/17 09:32:33;;;;;;;0.10;0.10;;;;;;;14.07;59.54;100795.00;7366250;19;20015;-59
2023/10/17 09:35:03;;;;;;;0.10;0.10;;;;;;;14.10;59.93;100789.66;7370073;19;20035;-60
2023/10/17 09:37:32;;;;;;;0.10;0.10;;;;;;;14.11;60.25;100786.13;7365530;19;20016;-60
2023/10/17 09:40:03;;;;;;;0.10;0.10;;;;;;;14.21;60.21;100790.13;7366499;19;20032;-59
2023/10/17 09:42:29;;;;;;;0.00;0.00;;;;;;;14.24;59.78;100778.63;7361271;19;20002;-59
2023/10/17 09:44:56;;;;;;;0.10;0.10;;;;;;;14.31;60.01;100781.91;7366773;19;20007;-59
2023/10/17 09:47:24;;;;;;;0.00;0.00;;;;;;;14.37;59.89;100776.44;7366504;19;20006;-58
2023/10/17 09:49:52;;;;;;;0.10;0.10;;;;;;;14.42;59.57;100774.47;7366454;19;20471;-59
2023/10/17 09:52:19;;;;;;;0.10;0.10;;;;;;;14.49;59.23;100773.34;7365969;19;20550;-59
2023/10/17 09:54:51;;;;;;;0.10;0.10;;;;;;;14.56;59.02;100772.22;7367626;19;20086;-59
2023/10/17 09:57:18;;;;;;;0.10;0.10;;;;;;;14.58;59.53;100775.66;7364674;19;20443;-59
2023/10/17 10:00:03;;;;;;;0.08;0.08;;;;;;;14.69;58.35;100767.34;7366024;19;20018;-59
2023/10/17 10:02:34;;;;;;;0.00;0.00;;;;;;;14.71;59.15;100770.78;7364723;19;20042;-60
2023/10/17 10:05:18;;;;;;;0.10;0.10;;;;;;;14.82;58.61;100767.75;7366806;19;20500;-59
2023/10/17 10:07:44;;;;;;;0.03;0.03;;;;;;;14.81;59.38;100766.03;7372833;19;20015;-59
2023/10/17 10:10:10;;;;;;;0.10;0.10;;;;;;;14.84;58.85;100750.97;7363960;19;20011;-59
2023/10/17 10:12:57;;;;;;;0.10;0.10;;;;;;;14.97;58.39;100749.59;7367144;19;20196;-59
2023/10/17 10:15:53;;;;;;;0.10;0.10;;;;;;;15.01;58.18;100755.59;7367648;19;20018;-59
2023/10/17 10:18:34;;;;;;;0.20;0.20;;;;;;;15.07;58.38;100749.22;7365347;19;20450;-59
2023/10/17 10:21:01;;;;;;;0.10;0.10;;;;;;;15.03;58.72;100753.75;7367738;19;20014;-59
2023/10/17 10:23:34;;;;;;;0.10;0.10;;;;;;;15.11;58.32;100754.28;7360808;19;20014;-59
2023/10/17 10:26:10;;;;;;;0.00;0.00;;;;;;;15.15;58.13;100747.97;7366502;19;20006;-59
2023/10/17 10:28:37;;;;;;;0.08;0.08;;;;;;;15.13;58.83;100741.94;7364242;19;20032;-60
2023/10/17 10:31:21;;;;;;;0.10;0.10;;;;;;;15.23;58.08;100738.00;7371389;19;20598;-59
2023/10/17 10:33:48;;;;;;;0.10;0.10;;;;;;;15.23;58.55;100738.00;7363838;19;20474;-59
2023/10/17 10:36:16;;;;;;;0.10;0.10;;;;;;;15.23;58.48;100743.25;7366138;19;20361;-59
2023/10/17 10:38:41;;;;;;;0.10;0.10;;;;;;;15.27;57.99;100738.72;7360417;19;20033;-59
2023/10/17 10:41:07;;;;;;;0.08;0.08;;;;;;;15.29;57.96;100727.22;7366796;19;20038;-60
2023/10/17 10:43:33;;;;;;;0.10;0.10;;;;;;;15.26;57.89;100721.25;7365994;19;20022;-59
2023/10/17 10:46:00;;;;;;;0.00;0.00;;;;;;;15.14;57.84;100691.03;7365485;19;20014;-59
2023/10/17 10:48:26;;;;;;;;;;;;;;;15.46;56.81;100723.00;7361489;19;20011;-58
2023/10/17 10:50:55;;;;;;;0.10;0.10;;;;;;;15.42;57.49;100718.81;7364606;19;19927;-60
2023/10/17 10:53:28;;;;;;;0.10;0.10;;;;;;;15.47;57.16;100719.47;7361132;19;20007;-59
2023/10/17 10:56:02;;;;;;;0.00;0.00;;;;;;;15.48;57.21;100718.56;7360803;19;20022;-59
2023/10/17 10:58:33;;;;;;;0.10;0.10;;;;;;;15.48;57.44;100703.63;7362505;19;20006;-58
2023/10/17 11:01:04;;;;;;;0.10;0.10;;;;;;;15.47;57.32;100701.06;7361262;19;20015;-59
2023/10/17 11:03:31;;;;;;;0.10;0.10;;;;;;;15.47;57.29;100703.69;7365228;19;20019;-59
2023/10/17 11:05:58;;;;;;;0.10;0.10;;;;;;;15.50;57.28;100698.28;7365395;19;20010;-60
2023/10/17 11:08:24;;;;;;;;;;;;;;;15.56;56.32;100698.88;7365945;19;20014;-60
2023/10/17 11:10:50;;;;;;;0.10;0.10;;;;;;;15.47;57.35;100687.91;7364677;19;20536;-59
2023/10/17 11:13:16;;;;;;;0.10;0.10;;;;;;;15.49;57.43;100688.69;7365105;19;20047;-59
2023/10/17 11:15:46;;;;;;;0.00;0.00;;;;;;;15.48;56.94;100679.06;7365900;19;20007;-59
2023/10/17 11:18:11;;;;;;;0.10;0.10;;;;;;;15.53;57.20;100692.88;7362421;19;20019;-59
2023/10/17 11:20:40;;;;;;;0.10;0.10;;;;;;;15.55;57.52;100688.41;7364895;19;20034;-59
2023/10/17 11:23:10;;;;;;;0.10;0.10;;;;;;;15.57;57.47;100683.94;7363941;19;20018;-60
2023/10/17 11:25:36;;;;;;;0.10;0.10;;;;;;;15.59;57.63;100687.34;7362438;19;20010;-59
2023/10/17 11:28:08;;;;;;;0.10;0.10;;;;;;;15.64;57.11;100684.56;7363554;19;20046;-60
2023/10/17 11:30:42;;;;;;;0.00;0.00;;;;;;;15.67;57.24;100685.28;7352257;19;20010;-59
2023/10/17 11:33:16;;;;;;;0.10;0.10;;;;;;;15.70;57.34;100690.41;7360278;19;20031;-60
2023/10/17 11:35:52;;;;;;;0.00;0.00;;;;;;;15.73;57.02;100679.75;7361624;19;20026;-59
2023/10/17 11:38:34;;;;;;;0.00;0.00;;;;;;;15.73;57.09;100669.22;7369172;19;20484;-59
2023/10/17 11:41:01;;;;;;;0.10;0.10;;;;;;;15.71;57.51;100665.81;7366044;19;20506;-59
2023/10/17 11:43:34;;;;;;;0.10;0.10;;;;;;;15.74;57.02;100670.91;7359074;19;20019;-59
2023/10/17 11:46:01;;;;;;;0.10;0.10;;;;;;;15.76;57.43;100663.81;7363758;19;20018;-59
2023/10/17 11:48:32;;;;;;;0.10;0.10;;;;;;;15.79;57.12;100668.94;7360854;19;20450;-59
2023/10/17 11:51:17;;;;;;;0.10;0.10;;;;;;;15.78;56.68;100646.16;7361214;19;20022;-59
2023/10/17 11:54:15;;;;;;;0.10;0.10;;;;;;;15.89;56.19;100648.31;7359505;19;20728;-59
2023/10/17 11:56:40;;;;;;;0.10;0.10;;;;;;;15.85;57.04;100637.97;7359737;19;20025;-59
2023/10/17 11:59:08;;;;;;;0.10;0.10;;;;;;;15.85;57.14;100635.34;7367456;19;20007;-59
2023/10/17 12:01:33;;;;;;;0.10;0.10;;;;;;;15.87;56.84;100628.25;7364136;19;20089;-60
2023/10/17 12:04:10;;;;;;;0.10;0.10;;;;;;;15.78;56.85;100621.63;7355492;19;20018;-59
2023/10/17 12:06:36;;;;;;;0.10;0.10;;;;;;;15.89;56.69;100626.38;7364592;19;20022;-59
2023/10/17 12:09:17;;;;;;;0.10;0.10;;;;;;;15.88;56.97;100622.06;7361356;19;20043;-59
2023/10/17 12:11:50;;;;;;;0.10;0.10;;;;;;;15.92;56.79;100621.00;7362901;19;20015;-59
2023/10/17 12:14:19;;;;;;;0.10;0.10;;;;;;;15.90;57.00;100622.81;7361267;19;20022;-59
2023/10/17 12:16:48;;;;;;;0.10;0.10;;;;;;;15.92;56.92;100615.72;7361954;19;20914;-58
2023/10/17 12:19:17;;;;;;;0.00;0.00;;;;;;;15.83;56.69;100585.41;7362068;19;20017;-59
2023/10/17 12:21:49;;;;;;;0.00;0.00;;;;;;;15.91;56.81;100600.81;7361109;19;20102;-59
2023/10/17 12:24:34;;;;;;;0.10;0.10;;;;;;;15.89;56.96;100593.00;7368149;19;20015;-59
2023/10/17 12:27:00;;;;;;;0.10;0.10;;;;;;;15.86;56.85;100584.38;7355167;19;22428;-58
2023/10/17 12:29:26;;;;;;;0.10;0.10;;;;;;;15.85;56.98;100587.94;7362036;19;20011;-60
2023/10/17 12:31:55;;;;;;;0.10;0.10;;;;;;;15.85;56.80;100578.28;7368069;19;20048;-59
2023/10/17 12:34:20;;;;;;;0.00;0.00;;;;;;;15.83;56.91;100565.19;7363754;19;20470;-59
2023/10/17 12:36:46;;;;;;;0.10;0.10;;;;;;;15.82;56.84;100563.47;7363305;19;20018;-59
2023/10/17 12:39:13;;;;;;;0.10;0.10;;;;;;;15.85;56.85;100564.25;7357321;19;20014;-59
2023/10/17 12:41:39;;;;;;;;;;;;;;;15.92;55.98;100568.31;7366430;19;20037;-59
2023/10/17 12:44:05;;;;;;;0.03;0.03;;;;;;;15.73;56.81;100528.81;7364065;19;20345;-59
2023/10/17 12:46:31;;;;;;;0.10;0.10;;;;;;;15.76;56.60;100539.19;7369513;19;20010;-59
2023/10/17 12:48:57;;;;;;;0.00;0.00;;;;;;;15.82;56.80;100545.06;7360683;19;20011;-59
2023/10/17 12:51:23;;;;;;;0.10;0.10;;;;;;;15.84;56.87;100544.97;7358522;19;20011;-59
2023/10/17 12:53:49;;;;;;;0.10;0.10;;;;;;;15.71;57.11;100522.75;7362571;19;20021;-59
2023/10/17 12:56:15;;;;;;;0.00;0.00;;;;;;;15.86;57.11;100532.56;7370556;19;20398;-59
2023/10/17 12:58:40;;;;;;;0.00;0.00;;;;;;;15.87;57.05;100536.09;7368612;19;20021;-59
2023/10/17 13:01:06;;;;;;;0.05;0.05;;;;;;;15.82;56.96;100515.25;7365050;19;20049;-59
2023/10/17 13:03:38;;;;;;;0.10;0.10;;;;;;;15.89;56.59;100515.78;7368976;19;20672;-59
2023/10/17 13:06:04;;;;;;;0.08;0.08;;;;;;;15.89;56.95;100521.91;7368898;19;20014;-60
2023/10/17 13:08:30;;;;;;;0.00;0.00;;;;;;;15.89;56.80;100515.78;7369857;19;20982;-59
2023/10/17 13:10:55;;;;;;;0.10;0.10;;;;;;;15.93;56.71;100505.03;7367113;19;20014;-60
2023/10/17 13:13:24;;;;;;;0.10;0.10;;;;;;;15.96;56.54;100506.66;7365425;19;20030;-59
2023/10/17 13:15:50;;;;;;;0.10;0.10;;;;;;;15.94;56.84;100508.53;7364066;19;20025;-59
2023/10/17 13:18:16;;;;;;;0.10;0.10;;;;;;;15.94;56.99;100503.25;7359540;19;20372;-59
2023/10/17 13:20:48;;;;;;;0.10;0.10;;;;;;;15.92;56.71;100489.31;7372676;19;20419;-59
2023/10/17 13:23:16;;;;;;;0.10;0.10;;;;;;;15.94;57.09;100484.81;7362594;19;20350;-59
2023/10/17 13:25:42;;;;;;;0.10;0.10;;;;;;;15.94;56.77;100485.66;7366007;19;20031;-59
2023/10/17 13:28:07;;;;;;;0.10;0.10;;;;;;;15.89;57.04;100468.38;7369208;19;20942;-60
2023/10/17 13:30:33;;;;;;;0.10;0.10;;;;;;;15.94;57.04;100474.28;7363418;19;20034;-59
2023/10/17 13:32:58;;;;;;;0.10;0.10;;;;;;;15.93;57.27;100467.31;7366644;19;20013;-59
2023/10/17 13:35:24;;;;;;;0.10;0.10;;;;;;;15.95;56.96;100471.56;7368986;19;20459;-59
2023/10/17 13:37:52;;;;;;;0.08;0.08;;;;;;;15.96;56.76;100469.78;7368667;19;20092;-59
2023/10/17 13:40:24;;;;;;;0.10;0.10;;;;;;;16.01;57.02;100473.06;7361719;19;20342;-59
2023/10/17 13:42:50;;;;;;;0.10;0.10;;;;;;;15.95;56.80;100468.09;7366734;19;20462;-59
2023/10/17 13:45:22;;;;;;;0.10;0.10;;;;;;;16.01;56.85;100462.50;7358769;19;20120;-58
2023/10/17 13:47:53;;;;;;;0.10;0.10;;;;;;;15.93;56.72;100444.47;7367082;19;20015;-59
2023/10/17 13:50:19;;;;;;;0.10;0.10;;;;;;;15.97;57.09;100450.44;7368277;19;20037;-59
2023/10/17 13:52:48;;;;;;;0.10;0.10;;;;;;;15.99;56.96;100454.69;7364735;19;20025;-59